Time;durP1;ratioP1;P1;durP2;ratioP2;P2;SDS_P1;SDS_P2;PMS_P1;PMS_P2;Temp;Humidity;BMP_temperature;BMP_pressure;BME280_temperature;BME280_humidity;BME280_pressure;Samples;Min_cycle;Max_cycle;Signal;HPM_P1;HPM_P2
2023/12/08 00:00:25;;;;;;;10.53;9.53;;;;;;;2.25;79.01;100740.47;5001963;28;20207;-81
2023/12/08 00:02:51;;;;;;;10.80;9.60;;;;;;;2.27;79.59;100738.78;5001787;28;20209;-81
2023/12/08 00:05:17;;;;;;;10.60;9.63;;;;;;;2.28;80.03;100715.63;5002149;28;20225;-80
2023/12/08 00:07:43;;;;;;;9.90;9.00;;;;;;;2.32;79.70;100722.59;5002342;28;20212;-81
2023/12/08 00:10:12;;;;;;;10.53;9.43;;;;;;;2.24;79.21;100719.00;5003033;28;20546;-79
2023/12/08 00:12:38;;;;;;;10.60;9.60;;;;;;;2.23;79.12;100709.53;5000157;28;20236;-79
2023/12/08 00:15:05;;;;;;;10.67;9.67;;;;;;;2.23;79.06;100709.53;4995118;28;20204;-78
2023/12/08 00:17:32;;;;;;;10.63;9.63;;;;;;;2.18;78.87;100712.03;5002305;28;20243;-81
2023/12/08 00:19:58;;;;;;;9.97;9.07;;;;;;;2.16;79.57;100705.06;4993839;28;20206;-81
2023/12/08 00:22:26;;;;;;;10.00;9.03;;;;;;;2.17;78.99;100693.94;5001182;28;20294;-79
2023/12/08 00:24:52;;;;;;;10.67;9.07;;;;;;;2.21;79.01;100676.84;5001913;28;20219;-78
2023/12/08 00:27:20;;;;;;;10.50;9.50;;;;;;;2.21;79.12;100671.72;5001730;28;20224;-80
2023/12/08 00:29:46;;;;;;;9.67;8.77;;;;;;;2.15;79.52;100659.59;5000644;28;20204;-79
2023/12/08 00:32:13;;;;;;;10.17;9.27;;;;;;;2.03;79.18;100661.94;5001890;28;20207;-79
2023/12/08 00:34:40;;;;;;;9.67;8.67;;;;;;;2.15;79.50;100650.13;5001176;28;20199;-80
2023/12/08 00:37:08;;;;;;;10.17;9.17;;;;;;;2.15;79.74;100650.13;5001191;28;20223;-80
2023/12/08 00:39:34;;;;;;;9.97;8.97;;;;;;;2.15;79.28;100639.84;5000579;28;20226;-80
2023/12/08 00:42:00;;;;;;;9.90;9.00;;;;;;;2.18;79.94;100626.13;5001162;28;20663;-79
2023/12/08 00:44:28;;;;;;;10.63;9.70;;;;;;;2.11;79.78;100619.16;5001106;28;20223;-78
2023/12/08 00:46:54;;;;;;;10.47;9.47;;;;;;;2.12;79.92;100610.59;5000719;28;20231;-81
2023/12/08 00:49:21;;;;;;;9.63;8.63;;;;;;;2.16;79.06;100612.38;4993448;28;20209;-81
2023/12/08 00:51:47;;;;;;;9.37;8.53;;;;;;;2.10;79.58;100607.13;5000000;28;20227;-79
2023/12/08 00:54:14;;;;;;;9.87;8.97;;;;;;;2.09;79.73;100606.25;5001329;28;20210;-79
2023/12/08 00:56:40;;;;;;;8.90;8.10;;;;;;;2.07;79.51;100610.50;4997129;28;20250;-80
2023/12/08 00:59:07;;;;;;;9.80;8.90;;;;;;;2.14;79.04;100602.06;5001169;28;20239;-79
2023/12/08 01:01:34;;;;;;;9.77;8.77;;;;;;;2.14;79.13;100591.78;5000378;28;20203;-78
2023/12/08 01:04:00;;;;;;;9.47;8.57;;;;;;;2.17;79.00;100596.97;4999737;28;20777;-80
2023/12/08 01:06:27;;;;;;;8.93;8.13;;;;;;;2.15;78.40;100601.22;4991344;28;20233;-79
2023/12/08 01:08:53;;;;;;;9.20;8.40;;;;;;;2.12;79.36;100611.47;4999579;28;20541;-80
2023/12/08 01:11:20;;;;;;;9.77;8.97;;;;;;;2.19;78.63;100610.72;4999729;28;20292;-81
2023/12/08 01:13:46;;;;;;;9.97;8.87;;;;;;;2.25;78.84;100607.41;4999212;28;20226;-80
2023/12/08 01:16:12;;;;;;;8.27;7.57;;;;;;;2.28;79.20;100609.16;4999062;28;20229;-81
2023/12/08 01:18:40;;;;;;;10.20;8.23;;;;;;;2.28;78.56;100615.19;4991401;28;20205;-81
2023/12/08 01:21:06;;;;;;;8.90;8.10;;;;;;;2.25;79.11;100620.28;4998430;28;20247;-78
2023/12/08 01:23:33;;;;;;;8.73;7.93;;;;;;;2.30;79.03;100622.91;4998553;28;20204;-80
2023/12/08 01:25:59;;;;;;;8.33;7.63;;;;;;;2.24;78.65;100631.44;4998962;28;20223;-80
2023/12/08 01:28:25;;;;;;;9.20;8.40;;;;;;;2.27;79.06;100610.88;4998374;28;20576;-79
2023/12/08 01:30:52;;;;;;;8.23;7.53;;;;;;;2.26;79.51;100598.84;4997936;28;20272;-80
2023/12/08 01:33:18;;;;;;;8.50;7.70;;;;;;;2.29;78.72;100592.88;4998168;28;20205;-79
2023/12/08 01:35:46;;;;;;;9.03;8.20;;;;;;;2.35;78.78;100596.41;4997956;28;20268;-80
2023/12/08 01:38:12;;;;;;;10.57;8.03;;;;;;;2.39;78.52;100587.88;4998871;28;20267;-79
2023/12/08 01:40:40;;;;;;;10.37;8.77;;;;;;;2.35;78.75;100575.81;4997720;28;20212;-79
2023/12/08 01:43:10;;;;;;;9.97;9.07;;;;;;;2.36;78.77;100582.69;4998329;28;20761;-80
2023/12/08 01:45:36;;;;;;;9.37;8.47;;;;;;;2.39;78.23;100577.59;4990618;28;20240;-79
2023/12/08 01:48:04;;;;;;;10.10;9.10;;;;;;;2.43;77.98;100582.81;4999316;28;20207;-79
2023/12/08 01:50:31;;;;;;;10.60;9.50;;;;;;;2.37;77.40;100588.72;4998264;28;20207;-79
2023/12/08 01:52:58;;;;;;;10.17;9.17;;;;;;;2.38;76.91;100599.06;4997218;28;20672;-79
2023/12/08 01:55:25;;;;;;;10.67;9.67;;;;;;;2.34;76.82;100605.00;4995982;28;20237;-80
2023/12/08 01:57:51;;;;;;;9.53;8.63;;;;;;;2.33;77.93;100598.09;4991202;28;20228;-80
2023/12/08 02:00:19;;;;;;;10.37;9.20;;;;;;;2.37;76.96;100594.72;4995114;28;20680;-80
2023/12/08 02:02:45;;;;;;;10.77;9.77;;;;;;;2.31;77.25;100586.03;4995930;28;20210;-80
2023/12/08 02:05:14;;;;;;;11.77;9.97;;;;;;;2.33;76.96;100580.06;4997666;28;20629;-80
2023/12/08 02:07:40;;;;;;;10.83;9.73;;;;;;;2.31;77.12;100580.88;4996914;28;20785;-80
2023/12/08 02:10:08;;;;;;;10.67;9.67;;;;;;;2.33;77.36;100584.34;4998127;28;20270;-78
2023/12/08 02:12:35;;;;;;;12.27;10.23;;;;;;;2.34;76.59;100594.69;4997702;28;20589;-81
2023/12/08 02:15:01;;;;;;;10.47;9.50;;;;;;;2.25;76.66;100591.09;4997591;28;20200;-80
2023/12/08 02:17:32;;;;;;;11.83;10.63;;;;;;;2.30;76.83;100574.88;4997760;28;20237;-79
2023/12/08 02:19:59;;;;;;;11.30;10.10;;;;;;;2.33;77.01;100584.34;4997888;28;20207;-80
2023/12/08 02:22:26;;;;;;;11.43;10.33;;;;;;;2.27;76.90;100572.25;4997421;28;20269;-80
2023/12/08 02:24:53;;;;;;;12.10;10.83;;;;;;;2.23;77.26;100552.44;4997723;28;20234;-80
2023/12/08 02:27:20;;;;;;;10.87;9.87;;;;;;;2.29;76.93;100549.09;4997058;28;20228;-80
2023/12/08 02:29:46;;;;;;;12.13;11.00;;;;;;;2.22;76.88;100550.72;4997667;28;20594;-79
2023/12/08 02:32:21;;;;;;;11.77;10.57;;;;;;;2.31;76.91;100548.25;4997355;28;20246;-80
2023/12/08 02:34:49;;;;;;;11.27;10.23;;;;;;;2.33;76.65;100563.75;4997466;28;20238;-80
2023/12/08 02:37:18;;;;;;;12.30;10.40;;;;;;;2.27;76.81;100566.22;4997382;28;20283;-79
2023/12/08 02:39:48;;;;;;;11.10;10.10;;;;;;;2.27;77.32;100563.66;4998212;28;20211;-80
2023/12/08 02:42:16;;;;;;;11.53;10.40;;;;;;;2.26;77.59;100543.88;4998074;28;20299;-80
2023/12/08 02:44:41;;;;;;;12.23;11.13;;;;;;;2.23;78.24;100543.84;4989481;28;20295;-81
2023/12/08 02:47:08;;;;;;;12.17;11.03;;;;;;;2.24;78.39;100538.72;4997385;28;20715;-80
2023/12/08 02:49:35;;;;;;;11.83;10.70;;;;;;;2.25;77.87;100521.56;4997566;28;20204;-81
2023/12/08 02:52:01;;;;;;;11.97;10.47;;;;;;;2.30;77.99;100520.78;4996811;28;20211;-80
2023/12/08 02:54:27;;;;;;;12.77;11.17;;;;;;;2.34;77.56;100529.44;4997612;28;20250;-80
2023/12/08 02:56:54;;;;;;;11.87;10.63;;;;;;;2.35;78.20;100524.28;4997445;28;20234;-80
2023/12/08 02:59:21;;;;;;;11.77;10.67;;;;;;;2.35;78.03;100533.72;4997498;28;20235;-80
2023/12/08 03:01:48;;;;;;;11.93;10.73;;;;;;;2.37;77.39;100532.91;4997462;28;20208;-79
2023/12/08 03:04:15;;;;;;;12.93;11.63;;;;;;;2.38;77.47;100534.66;5000452;28;20208;-80
2023/12/08 03:06:41;;;;;;;11.73;10.60;;;;;;;2.36;78.04;100528.63;5000777;28;20741;-81
2023/12/08 03:09:08;;;;;;;11.67;10.57;;;;;;;2.39;77.33;100520.06;5002179;28;20272;-81
2023/12/08 03:11:34;;;;;;;11.17;10.17;;;;;;;2.37;77.11;100526.91;5002214;28;20218;-81
2023/12/08 03:14:01;;;;;;;11.33;9.93;;;;;;;2.39;76.44;100522.63;5001282;28;20588;-80
2023/12/08 03:16:28;;;;;;;10.90;9.90;;;;;;;2.43;76.92;100520.97;5001447;28;20692;-79
2023/12/08 03:18:55;;;;;;;11.73;10.53;;;;;;;2.43;76.42;100526.13;5002025;28;20213;-81
2023/12/08 03:21:22;;;;;;;11.73;10.53;;;;;;;2.45;76.26;100532.16;5000178;28;20218;-79
2023/12/08 03:23:48;;;;;;;11.90;10.80;;;;;;;2.44;75.99;100551.03;5001479;28;20205;-79
2023/12/08 03:26:15;;;;;;;11.93;10.63;;;;;;;2.39;76.64;100544.09;5001409;28;20224;-78
2023/12/08 03:28:41;;;;;;;12.47;11.17;;;;;;;2.43;76.18;100544.16;5001671;28;20209;-80
2023/12/08 03:31:09;;;;;;;12.90;11.53;;;;;;;2.41;76.11;100540.69;5001748;28;20212;-81
2023/12/08 03:33:36;;;;;;;11.47;10.37;;;;;;;2.35;76.28;100547.47;5002006;28;20235;-79
2023/12/08 03:36:04;;;;;;;11.60;10.57;;;;;;;2.36;76.05;100533.75;5000021;28;20224;-78
2023/12/08 03:38:31;;;;;;;12.20;11.03;;;;;;;2.34;76.75;100514.84;5001490;28;20204;-80
2023/12/08 03:40:57;;;;;;;11.20;10.20;;;;;;;2.29;76.48;100506.16;5001265;28;20275;-78
2023/12/08 03:43:22;;;;;;;12.27;11.10;;;;;;;2.34;76.51;100499.38;5000715;28;20722;-79
2023/12/08 03:45:48;;;;;;;12.40;11.20;;;;;;;2.38;75.93;100496.00;5001280;28;20241;-80
2023/12/08 03:48:15;;;;;;;12.23;10.90;;;;;;;2.39;76.09;100496.88;5002132;28;20764;-80
2023/12/08 03:50:42;;;;;;;11.60;10.40;;;;;;;2.31;76.13;100501.03;5001651;28;20205;-80
2023/12/08 03:53:09;;;;;;;12.60;11.30;;;;;;;2.23;76.73;100477.75;5000756;28;20579;-80
2023/12/08 03:55:35;;;;;;;12.07;10.97;;;;;;;2.19;76.80;100453.66;5001502;28;20289;-79
2023/12/08 03:58:02;;;;;;;13.27;11.97;;;;;;;2.24;76.54;100451.16;5001317;28;20208;-81
2023/12/08 04:00:28;;;;;;;13.50;12.17;;;;;;;2.23;76.76;100462.28;5000972;28;20210;-78
2023/12/08 04:02:54;;;;;;;12.93;11.57;;;;;;;2.25;77.46;100452.03;5000728;28;20209;-81
2023/12/08 04:05:21;;;;;;;14.10;12.77;;;;;;;2.33;77.04;100459.00;5001530;28;20222;-80
2023/12/08 04:07:47;;;;;;;12.30;11.20;;;;;;;2.36;77.20;100458.19;5000526;28;20252;-79
2023/12/08 04:10:14;;;;;;;14.33;12.83;;;;;;;2.31;77.26;100467.56;4998058;28;20206;-78
2023/12/08 04:12:40;;;;;;;14.10;12.43;;;;;;;2.34;77.55;100455.59;4996182;28;20690;-80
2023/12/08 04:15:08;;;;;;;13.93;12.53;;;;;;;2.39;77.02;100453.94;5000203;28;20205;-80
2023/12/08 04:17:34;;;;;;;12.40;11.27;;;;;;;2.41;76.72;100463.41;5001320;28;20281;-80
2023/12/08 04:20:01;;;;;;;13.77;12.47;;;;;;;2.39;76.89;100464.25;5001609;28;20271;-80
2023/12/08 04:22:27;;;;;;;14.50;13.00;;;;;;;2.44;76.70;100459.19;4999853;28;20737;-79
2023/12/08 04:24:55;;;;;;;14.03;12.63;;;;;;;2.41;77.40;100459.13;5001145;28;20710;-78
2023/12/08 04:27:21;;;;;;;13.50;12.20;;;;;;;2.46;77.21;100433.41;5000515;28;20229;-81
2023/12/08 04:29:47;;;;;;;13.77;12.47;;;;;;;2.40;77.89;100408.47;5000351;28;20218;-81
2023/12/08 04:32:14;;;;;;;14.30;12.90;;;;;;;2.41;77.86;100404.16;5000596;28;20204;-79
2023/12/08 04:34:40;;;;;;;13.97;12.60;;;;;;;2.46;77.62;100399.94;5002117;28;20201;-80
2023/12/08 04:37:06;;;;;;;14.17;12.97;;;;;;;2.45;77.74;100405.94;5000017;28;20231;-81
2023/12/08 04:39:33;;;;;;;14.83;13.20;;;;;;;2.39;77.19;100417.03;5000664;28;20617;-81
2023/12/08 04:42:00;;;;;;;14.57;12.83;;;;;;;2.47;77.29;100414.56;5000416;28;20291;-80
2023/12/08 04:44:27;;;;;;;13.83;12.47;;;;;;;2.45;77.13;100418.81;5000782;28;20226;-80
2023/12/08 04:46:53;;;;;;;14.50;13.20;;;;;;;2.52;76.95;100415.50;5000285;28;20226;-80
2023/12/08 04:49:19;;;;;;;14.33;12.83;;;;;;;2.52;77.39;100415.50;5000134;28;20205;-79
2023/12/08 04:51:46;;;;;;;13.93;12.57;;;;;;;2.50;77.39;100406.88;5000245;28;20262;-80
2023/12/08 04:54:12;;;;;;;13.87;12.57;;;;;;;2.51;77.04;100417.19;4999815;28;20263;-80
2023/12/08 04:56:38;;;;;;;12.83;11.63;;;;;;;2.58;76.82;100420.72;5000100;28;20224;-80
2023/12/08 04:59:08;;;;;;;13.03;11.83;;;;;;;2.52;77.14;100418.94;4999791;28;20203;-80
2023/12/08 05:01:35;;;;;;;13.40;12.20;;;;;;;2.58;77.78;100416.44;5000457;28;20228;-80
2023/12/08 05:04:02;;;;;;;13.73;12.27;;;;;;;2.59;76.92;100418.16;5000040;28;20205;-80
2023/12/08 05:06:29;;;;;;;14.93;13.53;;;;;;;2.51;77.60;100424.91;4999298;28;20257;-80
2023/12/08 05:08:56;;;;;;;14.00;12.80;;;;;;;2.54;78.37;100403.50;5000357;28;20205;-78
2023/12/08 05:11:23;;;;;;;13.30;12.00;;;;;;;2.56;77.61;100383.75;5000625;28;20201;-80
2023/12/08 05:13:50;;;;;;;13.37;12.17;;;;;;;2.55;77.49;100389.75;4999603;28;20674;-80
2023/12/08 05:16:17;;;;;;;12.83;11.73;;;;;;;2.57;77.05;100400.94;4999881;28;20271;-80
2023/12/08 05:18:44;;;;;;;14.23;13.00;;;;;;;2.56;76.92;100414.69;4999619;28;20216;-80
2023/12/08 05:21:11;;;;;;;13.77;11.03;;;;;;;2.62;76.80;100424.19;4998847;28;20208;-80
2023/12/08 05:23:37;;;;;;;13.97;12.60;;;;;;;2.62;77.28;100421.59;4999296;28;20204;-80
2023/12/08 05:26:04;;;;;;;13.73;12.33;;;;;;;2.64;76.78;100428.53;4998173;28;20229;-80
2023/12/08 05:28:30;;;;;;;13.20;11.90;;;;;;;2.64;76.77;100433.69;4999356;28;20316;-80
2023/12/08 05:30:57;;;;;;;12.07;10.97;;;;;;;2.64;77.17;100432.84;4998957;28;20208;-80
2023/12/08 05:33:24;;;;;;;16.57;12.60;;;;;;;2.64;77.24;100430.25;4999438;28;20227;-79
2023/12/08 05:35:51;;;;;;;12.57;11.30;;;;;;;2.61;77.55;100425.03;4998929;28;20283;-80
2023/12/08 05:38:17;;;;;;;12.53;11.43;;;;;;;2.66;78.11;100413.09;4998484;28;20583;-79
2023/12/08 05:40:44;;;;;;;13.03;11.63;;;;;;;2.65;77.93;100412.22;4992378;28;20237;-79
2023/12/08 05:43:10;;;;;;;13.60;12.23;;;;;;;2.65;78.39;100395.88;4998525;28;20746;-80
2023/12/08 05:45:36;;;;;;;13.33;11.23;;;;;;;2.71;77.44;100399.41;4999351;28;20237;-80
2023/12/08 05:48:03;;;;;;;12.90;11.60;;;;;;;2.68;77.74;100401.94;5000021;28;20206;-80
2023/12/08 05:50:30;;;;;;;12.97;11.70;;;;;;;2.67;78.01;100389.03;4999840;28;20231;-80
2023/12/08 05:52:57;;;;;;;14.07;12.77;;;;;;;2.66;78.12;100380.44;4997550;28;20255;-79
2023/12/08 05:55:23;;;;;;;13.40;12.20;;;;;;;2.67;77.96;100382.16;4999029;28;20204;-80
2023/12/08 05:57:49;;;;;;;14.43;13.00;;;;;;;2.64;78.13;100374.41;4994101;28;20200;-80
2023/12/08 06:00:18;;;;;;;13.90;12.50;;;;;;;2.68;78.45;100372.75;4999614;28;20204;-79
2023/12/08 06:02:44;;;;;;;13.03;11.83;;;;;;;2.64;78.94;100368.41;4997006;28;20608;-80
2023/12/08 06:05:12;;;;;;;15.77;12.70;;;;;;;2.66;78.76;100353.81;4996716;28;20224;-80
2023/12/08 06:07:40;;;;;;;12.70;11.50;;;;;;;2.60;79.03;100341.72;4997789;28;20210;-80
2023/12/08 06:10:08;;;;;;;14.00;12.70;;;;;;;2.64;79.06;100340.91;4998911;28;20232;-80
2023/12/08 06:12:35;;;;;;;12.10;11.00;;;;;;;2.67;79.53;100333.19;4998197;28;20595;-81
2023/12/08 06:15:01;;;;;;;13.27;11.87;;;;;;;2.56;80.08;100320.22;4998452;28;20193;-81
2023/12/08 06:17:28;;;;;;;13.93;12.53;;;;;;;2.62;79.89;100309.13;4998331;28;20266;-80
2023/12/08 06:19:54;;;;;;;13.70;12.37;;;;;;;2.68;79.85;100304.03;4990459;28;20200;-80
2023/12/08 06:22:21;;;;;;;13.40;12.20;;;;;;;2.67;79.13;100309.16;4989302;28;20231;-80
2023/12/08 06:24:48;;;;;;;12.67;11.57;;;;;;;2.67;79.55;100312.59;4998348;28;20659;-80
2023/12/08 06:27:15;;;;;;;13.60;12.30;;;;;;;2.71;80.12;100319.50;4997419;28;20285;-80
2023/12/08 06:29:41;;;;;;;12.53;11.07;;;;;;;2.71;79.87;100298.03;4997771;28;20201;-81
2023/12/08 06:32:08;;;;;;;13.30;12.10;;;;;;;2.71;79.70;100303.19;4997788;28;20667;-80
2023/12/08 06:34:35;;;;;;;12.43;11.30;;;;;;;2.72;79.57;100304.94;4998085;28;20199;-80
2023/12/08 06:37:01;;;;;;;11.93;10.83;;;;;;;2.68;79.91;100305.75;4997496;28;20578;-80
2023/12/08 06:39:27;;;;;;;13.37;12.10;;;;;;;2.71;80.11;100306.63;4998253;28;20254;-80
2023/12/08 06:41:55;;;;;;;13.20;11.90;;;;;;;2.76;78.61;100307.53;4996724;28;20272;-80
2023/12/08 06:44:21;;;;;;;11.67;10.47;;;;;;;2.75;78.52;100334.16;4996892;28;20223;-79
2023/12/08 06:46:48;;;;;;;12.60;11.50;;;;;;;2.77;78.46;100337.63;4997433;28;20224;-79
2023/12/08 06:49:14;;;;;;;11.53;10.63;;;;;;;2.78;78.83;100326.47;4989741;28;20275;-79
2023/12/08 06:51:40;;;;;;;13.00;11.80;;;;;;;2.77;79.02;100326.44;4996647;28;20263;-80
2023/12/08 06:54:07;;;;;;;12.13;10.97;;;;;;;2.81;79.08;100317.88;4997073;28;20238;-80
2023/12/08 06:56:33;;;;;;;11.57;10.57;;;;;;;2.77;79.79;100311.88;4998179;28;20224;-79
2023/12/08 06:59:01;;;;;;;12.20;11.10;;;;;;;2.84;79.74;100307.63;4997102;28;20683;-80
2023/12/08 07:01:28;;;;;;;12.13;10.97;;;;;;;2.80;79.34;100305.88;4997376;28;20234;-80
2023/12/08 07:03:54;;;;;;;12.57;11.17;;;;;;;2.82;79.23;100314.47;4997272;28;20205;-80
2023/12/08 07:06:21;;;;;;;11.93;10.93;;;;;;;2.82;79.12;100314.47;4996075;28;20242;-80
2023/12/08 07:08:47;;;;;;;11.97;10.60;;;;;;;2.78;78.99;100321.31;4996937;28;20251;-80
2023/12/08 07:11:13;;;;;;;12.23;10.80;;;;;;;2.81;78.77;100320.47;4996927;28;20259;-79
2023/12/08 07:13:40;;;;;;;12.37;11.17;;;;;;;2.87;78.55;100311.94;5054215;23;20232;-81
2023/12/08 07:16:09;;;;;;;12.23;11.03;;;;;;;2.87;79.25;100312.81;5034034;28;20265;-80
2023/12/08 07:18:36;;;;;;;12.77;10.90;;;;;;;2.87;79.12;100315.38;5035396;28;20214;-80
2023/12/08 07:21:03;;;;;;;12.17;10.97;;;;;;;2.90;79.03;100318.00;5037041;28;20225;-79
2023/12/08 07:23:29;;;;;;;12.03;10.93;;;;;;;2.91;79.93;100309.41;5035711;28;20223;-80
2023/12/08 07:25:55;;;;;;;12.13;10.93;;;;;;;2.91;80.21;100295.66;5015318;28;20232;-80
2023/12/08 07:28:22;;;;;;;10.70;9.70;;;;;;;2.95;79.55;100282.84;5014981;28;20205;-80
2023/12/08 07:30:48;;;;;;;11.73;10.73;;;;;;;2.98;79.38;100289.72;5014383;28;20208;-80
2023/12/08 07:33:16;;;;;;;11.60;10.50;;;;;;;2.98;79.30;100294.88;5014952;28;20726;-81
2023/12/08 07:35:42;;;;;;;12.53;11.33;;;;;;;2.95;79.78;100293.16;5015346;28;20201;-80
2023/12/08 07:38:09;;;;;;;12.27;11.17;;;;;;;2.98;79.69;100292.31;5014600;28;20233;-81
2023/12/08 07:40:35;;;;;;;11.77;10.20;;;;;;;2.96;80.33;100275.94;5015018;28;20736;-80
2023/12/08 07:43:01;;;;;;;12.07;10.97;;;;;;;2.95;80.81;100256.16;5014644;28;20204;-81
2023/12/08 07:45:27;;;;;;;12.40;11.30;;;;;;;2.95;80.91;100240.69;5006735;28;20234;-81
2023/12/08 07:47:54;;;;;;;12.90;11.60;;;;;;;2.99;81.27;100229.56;5015695;28;20225;-81
2023/12/08 07:50:22;;;;;;;12.17;11.07;;;;;;;3.00;81.59;100220.13;5017514;28;20209;-80
2023/12/08 07:52:48;;;;;;;14.87;13.37;;;;;;;2.99;81.42;100219.25;5018071;28;20203;-81
2023/12/08 07:55:16;;;;;;;14.90;13.57;;;;;;;3.03;81.54;100207.25;5019198;28;20287;-81
2023/12/08 07:57:43;;;;;;;14.97;13.60;;;;;;;3.05;81.06;100213.28;5018679;28;20276;-81
2023/12/08 08:00:10;;;;;;;14.60;13.17;;;;;;;3.06;81.12;100209.88;5019406;28;20204;-81
2023/12/08 08:02:36;;;;;;;12.80;11.53;;;;;;;3.02;81.45;100210.69;5019044;28;20237;-81
2023/12/08 08:05:04;;;;;;;13.60;12.20;;;;;;;3.03;81.61;100202.09;5018730;28;20659;-81
2023/12/08 08:07:32;;;;;;;12.33;11.13;;;;;;;2.94;82.21;100195.16;5017906;28;20275;-81
2023/12/08 08:09:58;;;;;;;13.13;11.83;;;;;;;2.95;82.58;100191.72;5018898;28;20621;-81
2023/12/08 08:12:25;;;;;;;11.60;10.40;;;;;;;3.02;82.18;100177.16;5018157;28;20211;-81
2023/12/08 08:14:51;;;;;;;11.13;10.13;;;;;;;3.05;82.07;100190.06;5018900;28;20231;-81
2023/12/08 08:17:18;;;;;;;10.87;9.97;;;;;;;3.06;81.79;100204.69;5018603;28;20208;-81
2023/12/08 08:19:44;;;;;;;11.50;10.10;;;;;;;3.10;81.24;100212.47;5019839;28;20274;-81
2023/12/08 08:22:11;;;;;;;11.77;10.67;;;;;;;3.09;81.21;100228.81;5017511;28;20207;-81
2023/12/08 08:24:38;;;;;;;11.50;10.47;;;;;;;3.09;81.42;100233.06;5018220;28;20219;-80
2023/12/08 08:27:05;;;;;;;11.50;10.40;;;;;;;3.09;82.34;100222.75;5017813;28;20726;-81
2023/12/08 08:29:31;;;;;;;10.83;9.83;;;;;;;3.13;82.57;100199.59;5009722;28;20211;-80
2023/12/08 08:31:57;;;;;;;13.53;11.10;;;;;;;3.16;83.13;100196.19;5018196;28;20204;-80
2023/12/08 08:34:24;;;;;;;13.53;12.33;;;;;;;3.13;83.19;100183.25;5018000;28;20229;-80
2023/12/08 08:36:50;;;;;;;11.63;10.53;;;;;;;3.23;83.30;100173.84;5017943;28;20205;-79
2023/12/08 08:39:17;;;;;;;11.37;10.37;;;;;;;3.21;82.79;100165.25;5013405;28;20248;-79
2023/12/08 08:41:46;;;;;;;11.43;10.43;;;;;;;3.23;83.04;100172.16;5016515;28;20205;-79
2023/12/08 08:44:13;;;;;;;11.63;10.53;;;;;;;3.25;82.57;100178.19;5016501;28;20319;-79
2023/12/08 08:46:40;;;;;;;14.00;11.63;;;;;;;3.28;83.29;100179.94;5017124;28;20251;-83
2023/12/08 08:49:06;;;;;;;11.93;10.83;;;;;;;3.30;83.29;100175.63;5016841;28;20212;-80
2023/12/08 08:51:33;;;;;;;17.60;10.50;;;;;;;3.35;82.48;100179.97;5008790;28;20210;-81
2023/12/08 08:54:00;;;;;;;12.33;11.13;;;;;;;3.33;82.05;100184.25;5017288;28;20761;-82
2023/12/08 08:56:27;;;;;;;26.90;21.70;;;;;;;3.52;86.82;100130.19;5015022;28;20216;-82
2023/12/08 08:58:54;;;;;;;12.67;11.57;;;;;;;3.46;84.78;100112.94;5022859;28;20230;-81
2023/12/08 09:01:20;;;;;;;12.10;10.90;;;;;;;3.45;83.22;100131.00;5033038;28;20243;-79
2023/12/08 09:03:47;;;;;;;11.83;9.73;;;;;;;3.41;82.40;100160.22;5030590;28;20235;-79
2023/12/08 09:06:13;;;;;;;12.20;10.90;;;;;;;3.48;83.08;100160.25;5022909;28;20744;-78
2023/12/08 09:08:39;;;;;;;12.07;10.90;;;;;;;3.57;83.70;100162.91;5020631;28;20200;-78
2023/12/08 09:11:06;;;;;;;10.40;9.33;;;;;;;3.57;85.65;100131.94;5021940;28;20253;-77
2023/12/08 09:13:32;;;;;;;9.87;8.93;;;;;;;3.68;85.69;100118.19;5020322;28;20869;-79
2023/12/08 09:16:00;;;;;;;10.10;9.10;;;;;;;3.72;85.27;100104.44;5020588;28;20204;-79
2023/12/08 09:18:26;;;;;;;12.20;11.00;;;;;;;3.73;85.15;100101.88;5021407;28;20244;-78
2023/12/08 09:20:53;;;;;;;9.63;8.73;;;;;;;3.90;87.74;100058.03;5021426;28;20210;-78
2023/12/08 09:23:19;;;;;;;8.83;8.13;;;;;;;4.00;87.66;100035.66;5020117;28;20288;-79
2023/12/08 09:25:45;;;;;;;9.97;9.07;;;;;;;4.03;86.33;100043.44;5015561;28;20199;-79
2023/12/08 09:28:12;;;;;;;10.13;9.10;;;;;;;4.02;84.78;100066.66;5014256;28;20578;-78
2023/12/08 09:30:39;;;;;;;11.35;10.32;;;;;;;4.00;83.13;100117.44;5014679;28;20860;-79
2023/12/08 09:33:09;;;;;;;10.20;9.30;;;;;;;3.66;81.32;100171.53;5016549;28;20215;-79
2023/12/08 09:35:35;;;;;;;10.40;9.60;;;;;;;3.69;81.32;100181.88;5015717;28;20255;-79
2023/12/08 09:38:03;;;;;;;10.00;9.10;;;;;;;3.71;82.60;100182.75;5015422;28;20623;-79
2023/12/08 09:40:33;;;;;;;9.20;8.27;;;;;;;3.67;82.93;100171.56;5015108;28;20209;-79
2023/12/08 09:43:04;;;;;;;8.97;8.17;;;;;;;3.60;82.73;100164.63;5015702;28;20231;-78
2023/12/08 09:45:31;;;;;;;8.40;7.60;;;;;;;3.66;83.27;100163.78;5014556;28;20207;-79
2023/12/08 09:47:59;;;;;;;8.83;8.03;;;;;;;3.52;82.78;100159.41;5015166;28;20633;-79
2023/12/08 09:50:27;;;;;;;9.60;8.67;;;;;;;3.53;81.79;100173.22;5014120;28;20662;-78
2023/12/08 09:52:54;;;;;;;8.37;7.60;;;;;;;3.53;83.10;100163.75;5013115;28;20203;-78
2023/12/08 09:55:23;;;;;;;7.77;7.07;;;;;;;3.48;82.64;100152.50;5014408;28;20352;-78
2023/12/08 09:57:52;;;;;;;8.60;7.90;;;;;;;3.48;82.87;100144.78;4320446;28;10000846;-79
2023/12/08 10:00:20;;;;;;;8.13;7.43;;;;;;;3.36;83.35;100130.09;5010758;28;20291;-79
2023/12/08 10:02:46;;;;;;;9.13;8.23;;;;;;;3.41;83.28;100129.25;5011478;28;20230;-78
2023/12/08 10:05:12;;;;;;;8.93;8.13;;;;;;;3.38;83.56;100122.38;5011309;28;20228;-79
2023/12/08 10:07:43;;;;;;;9.33;8.50;;;;;;;3.41;83.87;100113.78;5003299;28;20225;-79
2023/12/08 10:10:10;;;;;;;8.63;7.83;;;;;;;3.43;84.54;100100.03;5011666;28;20210;-78
2023/12/08 10:12:37;;;;;;;9.77;8.87;;;;;;;3.43;83.97;100096.59;5011075;28;20336;-78
2023/12/08 10:15:09;;;;;;;9.60;8.77;;;;;;;3.46;83.31;100094.88;5011625;28;20232;-78
2023/12/08 10:17:46;;;;;;;9.43;8.57;;;;;;;3.46;82.98;100114.66;5011860;28;20263;-78
2023/12/08 10:20:13;;;;;;;8.73;7.97;;;;;;;3.37;83.52;100120.66;5013244;28;20212;-78
2023/12/08 10:22:47;;;;;;;8.77;7.97;;;;;;;3.42;83.53;100116.38;5012098;28;20281;-79
2023/12/08 10:25:16;;;;;;;8.83;8.03;;;;;;;3.42;83.36;100111.22;5013159;28;20280;-78
2023/12/08 10:27:42;;;;;;;9.20;8.40;;;;;;;3.42;84.21;100095.72;5012212;28;20338;-79
2023/12/08 10:30:10;;;;;;;8.43;7.53;;;;;;;3.39;83.55;100095.72;5014285;28;20215;-79
2023/12/08 10:32:38;;;;;;;9.70;8.70;;;;;;;3.39;83.18;100095.72;5013465;28;20231;-80
2023/12/08 10:35:05;;;;;;;8.60;7.70;;;;;;;3.40;83.91;100097.44;5014425;28;20287;-80
2023/12/08 10:37:32;;;;;;;8.90;8.13;;;;;;;3.40;83.59;100087.13;5012948;28;20221;-80
2023/12/08 10:40:02;;;;;;;10.00;9.00;;;;;;;3.40;83.51;100081.97;5013371;28;20622;-79
2023/12/08 10:42:29;;;;;;;8.73;7.97;;;;;;;3.36;83.64;100069.91;5012347;28;20212;-79
2023/12/08 10:44:55;;;;;;;9.40;8.40;;;;;;;3.36;83.72;100072.47;5012160;28;20228;-79
2023/12/08 10:47:22;;;;;;;9.73;8.83;;;;;;;3.34;83.94;100071.63;5012906;28;20231;-79
2023/12/08 10:49:49;;;;;;;9.47;8.67;;;;;;;3.35;84.31;100058.72;5012119;28;20200;-80
2023/12/08 10:52:16;;;;;;;9.40;8.47;;;;;;;3.37;84.07;100057.03;5012578;28;20208;-80
2023/12/08 10:54:42;;;;;;;8.93;8.13;;;;;;;3.42;84.52;100056.19;5004470;28;20277;-79
2023/12/08 10:57:11;;;;;;;9.20;8.40;;;;;;;3.42;84.08;100058.75;5011089;28;20202;-79
2023/12/08 10:59:41;;;;;;;9.57;8.67;;;;;;;3.42;84.42;100062.19;5009568;28;20222;-78
2023/12/08 11:02:21;;;;;;;10.30;9.37;;;;;;;3.45;85.02;100048.44;5012911;28;20222;-78
2023/12/08 11:04:54;;;;;;;9.13;8.33;;;;;;;3.50;85.56;100029.53;5013242;28;20320;-79
2023/12/08 11:07:28;;;;;;;10.07;8.83;;;;;;;3.51;85.63;100013.22;5012664;28;20235;-79
2023/12/08 11:10:00;;;;;;;9.90;9.10;;;;;;;3.52;86.11;100004.59;5028430;28;20219;-78
2023/12/08 11:12:34;;;;;;;9.47;8.67;;;;;;;3.56;85.83;100001.16;5030845;28;20215;-78
2023/12/08 11:15:04;;;;;;;8.63;7.83;;;;;;;3.52;86.34;99994.28;5031669;28;20241;-79
2023/12/08 11:17:35;;;;;;;8.90;8.10;;;;;;;3.54;86.96;99973.63;5031520;28;20578;-78
2023/12/08 11:20:03;;;;;;;9.40;8.50;;;;;;;3.57;86.81;99971.94;5030531;28;20184;-77